Terminal Aerodrome Forecast
Issued by NWS Paducah, KY

Home | Current Version | Previous Version | Text Only | Print | Product List | Glossary On
Versions: 1 2 3 4 5 6 7 8 9 10 11 12 13 14 15 16 17 18
000
FTUS43 KPAH 262320
TAFPAH
TAF
KPAH 262320Z 2700/2724 23009KT P6SM SCT025 BKN050
     FM270200 21006KT P6SM SKC
     FM270700 20006KT P6SM BKN250
     FM271600 23008KT P6SM BKN050=

USA.gov is the U.S. government's official web portal to all federal, state and local government web resources and services.